sensor_id;sensor_type;location;lat;lon;timestamp;pressure;altitude;pressure_sealevel;temperature;humidity
46534;BME280;32260;52.008;4.752;2023-01-25T00:00:10;103917.88;;;3.93;64.88
46534;BME280;32260;52.008;4.752;2023-01-25T00:02:36;103911.72;;;3.93;64.88
46534;BME280;32260;52.008;4.752;2023-01-25T00:05:03;103907.22;;;3.90;64.81
46534;BME280;32260;52.008;4.752;2023-01-25T00:07:29;103908.03;;;3.89;64.51
46534;BME280;32260;52.008;4.752;2023-01-25T00:09:55;103906.28;;;3.89;64.65
46534;BME280;32260;52.008;4.752;2023-01-25T00:12:21;103903.75;;;3.91;64.79
46534;BME280;32260;52.008;4.752;2023-01-25T00:14:47;103895.06;;;3.92;64.53
46534;BME280;32260;52.008;4.752;2023-01-25T00:17:13;103894.34;;;3.95;64.68
46534;BME280;32260;52.008;4.752;2023-01-25T00:19:39;103890.91;;;3.96;64.52
46534;BME280;32260;52.008;4.752;2023-01-25T00:22:05;103884.84;;;3.97;64.94
46534;BME280;32260;52.008;4.752;2023-01-25T00:24:31;103885.66;;;3.96;64.77
46534;BME280;32260;52.008;4.752;2023-01-25T00:26:57;103879.53;;;3.95;64.36
46534;BME280;32260;52.008;4.752;2023-01-25T00:29:24;103882.94;;;3.94;64.41
46534;BME280;32260;52.008;4.752;2023-01-25T00:32:02;103879.59;;;3.97;64.80
46534;BME280;32260;52.008;4.752;2023-01-25T00:37:22;103865.59;;;3.96;64.61
46534;BME280;32260;52.008;4.752;2023-01-25T00:39:50;103861.03;;;3.94;64.80
46534;BME280;32260;52.008;4.752;2023-01-25T00:42:17;103864.31;;;3.89;64.62
46534;BME280;32260;52.008;4.752;2023-01-25T00:44:44;103869.31;;;3.85;64.57
46534;BME280;32260;52.008;4.752;2023-01-25T00:47:11;103860.34;;;3.81;64.05
46534;BME280;32260;52.008;4.752;2023-01-25T00:49:39;103864.44;;;3.76;64.54
46534;BME280;32260;52.008;4.752;2023-01-25T00:52:05;103861.09;;;3.79;64.77
46534;BME280;32260;52.008;4.752;2023-01-25T00:54:32;103869.06;;;3.80;64.94
46534;BME280;32260;52.008;4.752;2023-01-25T00:56:58;103861.09;;;3.79;64.39
46534;BME280;32260;52.008;4.752;2023-01-25T00:59:25;103863.81;;;3.80;64.41
46534;BME280;32260;52.008;4.752;2023-01-25T01:01:52;103865.59;;;3.81;64.28
46534;BME280;32260;52.008;4.752;2023-01-25T01:04:19;103854.94;;;3.78;64.17
46534;BME280;32260;52.008;4.752;2023-01-25T01:06:45;103863.47;;;3.74;64.03
46534;BME280;32260;52.008;4.752;2023-01-25T01:09:14;103859.84;;;3.72;64.46
46534;BME280;32260;52.008;4.752;2023-01-25T01:11:40;103854.59;;;3.72;64.25
46534;BME280;32260;52.008;4.752;2023-01-25T01:14:06;103857.13;;;3.70;64.23
46534;BME280;32260;52.008;4.752;2023-01-25T01:16:33;103855.25;;;3.68;64.40
46534;BME280;32260;52.008;4.752;2023-01-25T01:18:59;103850.00;;;3.68;64.49
46534;BME280;32260;52.008;4.752;2023-01-25T01:21:25;103852.63;;;3.68;64.20
46534;BME280;32260;52.008;4.752;2023-01-25T01:23:53;103846.31;;;3.64;64.32
46534;BME280;32260;52.008;4.752;2023-01-25T01:26:19;103852.34;;;3.63;64.82
46534;BME280;32260;52.008;4.752;2023-01-25T01:28:46;103854.81;;;3.60;64.09
46534;BME280;32260;52.008;4.752;2023-01-25T01:31:15;103850.25;;;3.58;64.39
46534;BME280;32260;52.008;4.752;2023-01-25T01:33:42;103850.84;;;3.52;64.87
46534;BME280;32260;52.008;4.752;2023-01-25T01:38:46;103856.16;;;3.53;65.06
46534;BME280;32260;52.008;4.752;2023-01-25T01:41:13;103846.47;;;3.52;65.10
46534;BME280;32260;52.008;4.752;2023-01-25T01:43:39;103850.09;;;3.54;64.63
46534;BME280;32260;52.008;4.752;2023-01-25T01:46:26;103850.47;;;3.61;64.55
46534;BME280;32260;52.008;4.752;2023-01-25T01:54:24;103853.72;;;3.56;64.47
46534;BME280;32260;52.008;4.752;2023-01-25T01:59:45;103858.97;;;3.56;64.82
46534;BME280;32260;52.008;4.752;2023-01-25T02:02:14;103855.16;;;3.51;64.39
46534;BME280;32260;52.008;4.752;2023-01-25T02:04:42;103855.16;;;3.51;64.39
46534;BME280;32260;52.008;4.752;2023-01-25T02:07:18;103857.16;;;3.55;64.47
46534;BME280;32260;52.008;4.752;2023-01-25T02:09:46;103843.06;;;3.53;65.00
46534;BME280;32260;52.008;4.752;2023-01-25T02:12:14;103850.19;;;3.56;64.96
46534;BME280;32260;52.008;4.752;2023-01-25T02:14:47;103851.00;;;3.55;64.91
46534;BME280;32260;52.008;4.752;2023-01-25T02:17:14;103851.72;;;3.52;64.57
46534;BME280;32260;52.008;4.752;2023-01-25T02:19:49;103837.81;;;3.53;64.43
46534;BME280;32260;52.008;4.752;2023-01-25T02:22:23;103839.53;;;3.53;64.26
46534;BME280;32260;52.008;4.752;2023-01-25T02:25:00;103840.34;;;3.52;64.69
46534;BME280;32260;52.008;4.752;2023-01-25T02:27:28;103837.28;;;3.44;64.70
46534;BME280;32260;52.008;4.752;2023-01-25T02:29:54;103837.28;;;3.44;64.78
46534;BME280;32260;52.008;4.752;2023-01-25T02:32:20;103834.75;;;3.46;64.95
46534;BME280;32260;52.008;4.752;2023-01-25T02:34:49;103826.69;;;3.43;64.92
46534;BME280;32260;52.008;4.752;2023-01-25T02:37:15;103828.50;;;3.44;64.59
46534;BME280;32260;52.008;4.752;2023-01-25T02:39:41;103821.56;;;3.44;64.62
46534;BME280;32260;52.008;4.752;2023-01-25T02:42:08;103821.66;;;3.46;64.91
46534;BME280;32260;52.008;4.752;2023-01-25T02:44:34;103820.91;;;3.48;64.62
46534;BME280;32260;52.008;4.752;2023-01-25T02:47:01;103827.97;;;3.49;64.61
46534;BME280;32260;52.008;4.752;2023-01-25T02:49:27;103818.13;;;3.45;64.47
46534;BME280;32260;52.008;4.752;2023-01-25T02:51:54;103817.22;;;3.45;64.40
46534;BME280;32260;52.008;4.752;2023-01-25T02:54:23;103819.56;;;3.40;64.62
46534;BME280;32260;52.008;4.752;2023-01-25T02:56:50;103809.91;;;3.39;64.15
46534;BME280;32260;52.008;4.752;2023-01-25T02:59:16;103808.91;;;3.37;64.62
46534;BME280;32260;52.008;4.752;2023-01-25T03:01:44;103804.56;;;3.37;64.34
46534;BME280;32260;52.008;4.752;2023-01-25T03:04:10;103804.47;;;3.36;64.20
46534;BME280;32260;52.008;4.752;2023-01-25T03:06:38;103798.25;;;3.34;64.58
46534;BME280;32260;52.008;4.752;2023-01-25T03:09:07;103805.84;;;3.29;64.04
46534;BME280;32260;52.008;4.752;2023-01-25T03:11:33;103799.53;;;3.26;64.58
46534;BME280;32260;52.008;4.752;2023-01-25T03:14:00;103798.44;;;3.22;64.18
46534;BME280;32260;52.008;4.752;2023-01-25T03:16:26;103793.94;;;3.19;64.89
46534;BME280;32260;52.008;4.752;2023-01-25T03:18:53;103795.75;;;3.20;64.56
46534;BME280;32260;52.008;4.752;2023-01-25T03:21:21;103787.97;;;3.22;64.96
46534;BME280;32260;52.008;4.752;2023-01-25T03:23:53;103788.84;;;3.22;64.67
46534;BME280;32260;52.008;4.752;2023-01-25T03:26:21;103789.84;;;3.24;64.63
46534;BME280;32260;52.008;4.752;2023-01-25T03:28:47;103788.06;;;3.23;64.48
46534;BME280;32260;52.008;4.752;2023-01-25T03:31:15;103780.19;;;3.23;64.59
46534;BME280;32260;52.008;4.752;2023-01-25T03:33:42;103774.13;;;3.24;64.24
46534;BME280;32260;52.008;4.752;2023-01-25T03:36:08;103774.31;;;3.28;64.37
46534;BME280;32260;52.008;4.752;2023-01-25T03:38:35;103769.06;;;3.28;64.42
46534;BME280;32260;52.008;4.752;2023-01-25T03:41:03;103774.41;;;3.29;64.89
46534;BME280;32260;52.008;4.752;2023-01-25T03:43:29;103769.72;;;3.23;64.77
46534;BME280;32260;52.008;4.752;2023-01-25T03:45:58;103767.91;;;3.22;64.60
46534;BME280;32260;52.008;4.752;2023-01-25T03:48:25;103766.00;;;3.20;64.52
46534;BME280;32260;52.008;4.752;2023-01-25T03:50:54;103759.97;;;3.21;64.66
46534;BME280;32260;52.008;4.752;2023-01-25T03:53:21;103759.69;;;3.16;64.79
46534;BME280;32260;52.008;4.752;2023-01-25T03:55:57;103763.22;;;3.17;64.89
46534;BME280;32260;52.008;4.752;2023-01-25T03:58:24;103752.75;;;3.17;65.06
46534;BME280;32260;52.008;4.752;2023-01-25T04:00:52;103755.44;;;3.18;64.73
46534;BME280;32260;52.008;4.752;2023-01-25T04:03:19;103759.06;;;3.20;64.54
46534;BME280;32260;52.008;4.752;2023-01-25T04:05:46;103756.44;;;3.20;64.35
46534;BME280;32260;52.008;4.752;2023-01-25T04:08:13;103755.59;;;3.21;64.75
46534;BME280;32260;52.008;4.752;2023-01-25T04:10:39;103756.44;;;3.20;64.48
46534;BME280;32260;52.008;4.752;2023-01-25T04:13:05;103758.13;;;3.20;64.44
46534;BME280;32260;52.008;4.752;2023-01-25T04:15:31;103756.53;;;3.22;64.57
46534;BME280;32260;52.008;4.752;2023-01-25T04:17:57;103760.03;;;3.22;64.33
46534;BME280;32260;52.008;4.752;2023-01-25T04:20:23;103754.34;;;3.15;64.38
46534;BME280;32260;52.008;4.752;2023-01-25T04:22:50;103749.13;;;3.15;64.81
46534;BME280;32260;52.008;4.752;2023-01-25T04:25:16;103749.84;;;3.12;64.60
46534;BME280;32260;52.008;4.752;2023-01-25T04:27:42;103755.09;;;3.12;64.59
46534;BME280;32260;52.008;4.752;2023-01-25T04:30:08;103754.09;;;3.10;64.59
46534;BME280;32260;52.008;4.752;2023-01-25T04:32:35;103744.34;;;3.07;64.96
46534;BME280;32260;52.008;4.752;2023-01-25T04:35:02;103751.09;;;3.04;64.95
46534;BME280;32260;52.008;4.752;2023-01-25T04:37:28;103743.25;;;3.04;65.03
46534;BME280;32260;52.008;4.752;2023-01-25T04:39:54;103737.66;;;2.98;65.31
46534;BME280;32260;52.008;4.752;2023-01-25T04:42:20;103739.66;;;3.02;64.83
46534;BME280;32260;52.008;4.752;2023-01-25T04:44:46;103730.88;;;3.01;64.74
46534;BME280;32260;52.008;4.752;2023-01-25T04:47:12;103730.00;;;3.01;65.13
46534;BME280;32260;52.008;4.752;2023-01-25T04:49:38;103736.22;;;3.03;65.20
46534;BME280;32260;52.008;4.752;2023-01-25T04:52:04;103724.75;;;3.01;65.10
46534;BME280;32260;52.008;4.752;2023-01-25T04:54:30;103721.31;;;3.02;65.12
46534;BME280;32260;52.008;4.752;2023-01-25T04:56:56;103723.81;;;3.00;65.23
46534;BME280;32260;52.008;4.752;2023-01-25T04:59:22;103720.50;;;3.03;64.99
46534;BME280;32260;52.008;4.752;2023-01-25T05:01:48;103724.75;;;3.01;64.95
46534;BME280;32260;52.008;4.752;2023-01-25T05:04:14;103718.44;;;2.97;64.75
46534;BME280;32260;52.008;4.752;2023-01-25T05:06:40;103720.97;;;2.96;64.72
46534;BME280;32260;52.008;4.752;2023-01-25T05:09:07;103721.06;;;2.97;65.14
46534;BME280;32260;52.008;4.752;2023-01-25T05:11:34;103717.34;;;2.94;64.63
46534;BME280;32260;52.008;4.752;2023-01-25T05:14:00;103722.59;;;2.94;64.49
46534;BME280;32260;52.008;4.752;2023-01-25T05:16:26;103717.34;;;2.94;64.60
46534;BME280;32260;52.008;4.752;2023-01-25T05:18:54;103719.16;;;2.95;64.77
46534;BME280;32260;52.008;4.752;2023-01-25T05:21:20;103712.09;;;2.94;64.85
46534;BME280;32260;52.008;4.752;2023-01-25T05:24:07;103716.47;;;2.93;64.75
46534;BME280;32260;52.008;4.752;2023-01-25T05:26:33;103719.16;;;2.95;64.46
46534;BME280;32260;52.008;4.752;2023-01-25T05:29:19;103713.13;;;2.96;64.79
46534;BME280;32260;52.008;4.752;2023-01-25T05:31:45;103705.34;;;2.97;64.83
46534;BME280;32260;52.008;4.752;2023-01-25T05:34:11;103710.66;;;2.99;65.12
46534;BME280;32260;52.008;4.752;2023-01-25T05:36:38;103710.66;;;2.99;64.68
46534;BME280;32260;52.008;4.752;2023-01-25T05:39:05;103714.28;;;3.01;64.85
46534;BME280;32260;52.008;4.752;2023-01-25T05:41:31;103711.47;;;2.98;64.77
46534;BME280;32260;52.008;4.752;2023-01-25T05:43:57;103708.84;;;2.98;64.62
46534;BME280;32260;52.008;4.752;2023-01-25T05:46:23;103709.75;;;2.98;64.64
46534;BME280;32260;52.008;4.752;2023-01-25T05:48:51;103712.31;;;2.97;64.62
46534;BME280;32260;52.008;4.752;2023-01-25T05:51:17;103713.91;;;2.95;64.65
46534;BME280;32260;52.008;4.752;2023-01-25T05:53:43;103707.69;;;2.92;64.56
46534;BME280;32260;52.008;4.752;2023-01-25T05:56:09;103711.94;;;2.90;64.80
46534;BME280;32260;52.008;4.752;2023-01-25T05:58:36;103715.38;;;2.89;64.93
46534;BME280;32260;52.008;4.752;2023-01-25T06:01:05;103713.56;;;2.88;64.79
46534;BME280;32260;52.008;4.752;2023-01-25T06:03:31;103708.25;;;2.87;65.05
46534;BME280;32260;52.008;4.752;2023-01-25T06:06:00;103704.53;;;2.83;64.69
46534;BME280;32260;52.008;4.752;2023-01-25T06:08:28;103711.31;;;2.80;64.79
46534;BME280;32260;52.008;4.752;2023-01-25T06:10:54;103713.94;;;2.80;64.71
46534;BME280;32260;52.008;4.752;2023-01-25T06:13:20;103713.84;;;2.78;64.66
46534;BME280;32260;52.008;4.752;2023-01-25T06:15:56;103714.09;;;2.83;64.79
46534;BME280;32260;52.008;4.752;2023-01-25T06:18:22;103715.38;;;2.74;64.75
46534;BME280;32260;52.008;4.752;2023-01-25T06:20:50;103718.81;;;2.73;64.87
46534;BME280;32260;52.008;4.752;2023-01-25T06:23:16;103720.34;;;2.70;64.60
46534;BME280;32260;52.008;4.752;2023-01-25T06:25:43;103723.59;;;2.66;64.66
46534;BME280;32260;52.008;4.752;2023-01-25T06:28:09;103722.78;;;2.67;64.93
46534;BME280;32260;52.008;4.752;2023-01-25T06:30:35;103720.97;;;2.66;65.01
46534;BME280;32260;52.008;4.752;2023-01-25T06:33:02;103725.41;;;2.67;64.96
46534;BME280;32260;52.008;4.752;2023-01-25T06:35:29;103715.75;;;2.66;64.96
46534;BME280;32260;52.008;4.752;2023-01-25T06:37:56;103720.97;;;2.66;64.97
46534;BME280;32260;52.008;4.752;2023-01-25T06:40:23;103715.75;;;2.66;64.98
46534;BME280;32260;52.008;4.752;2023-01-25T06:42:49;103717.19;;;2.61;64.91
46534;BME280;32260;52.008;4.752;2023-01-25T06:45:15;103709.13;;;2.57;64.76
46534;BME280;32260;52.008;4.752;2023-01-25T06:47:41;103712.41;;;2.53;64.91
46534;BME280;32260;52.008;4.752;2023-01-25T06:50:09;103717.63;;;2.53;65.03
46534;BME280;32260;52.008;4.752;2023-01-25T06:52:35;103718.44;;;2.52;64.92
46534;BME280;32260;52.008;4.752;2023-01-25T06:55:03;103714.94;;;2.52;64.97
46534;BME280;32260;52.008;4.752;2023-01-25T06:57:30;103712.84;;;2.46;64.72
46534;BME280;32260;52.008;4.752;2023-01-25T06:59:56;103713.63;;;2.45;65.21
46534;BME280;32260;52.008;4.752;2023-01-25T07:02:22;103714.28;;;2.41;64.90
46534;BME280;32260;52.008;4.752;2023-01-25T07:04:48;103718.41;;;2.37;64.75
46534;BME280;32260;52.008;4.752;2023-01-25T07:07:14;103703.44;;;2.35;65.08
46534;BME280;32260;52.008;4.752;2023-01-25T07:09:40;103707.75;;;2.34;65.09
46534;BME280;32260;52.008;4.752;2023-01-25T07:12:07;103707.97;;;2.37;65.31
46534;BME280;32260;52.008;4.752;2023-01-25T07:14:33;103708.13;;;2.40;65.33
46534;BME280;32260;52.008;4.752;2023-01-25T07:16:59;103703.09;;;2.43;65.58
46534;BME280;32260;52.008;4.752;2023-01-25T07:19:25;103706.00;;;2.48;65.59
46534;BME280;32260;52.008;4.752;2023-01-25T07:21:51;103704.47;;;2.52;65.36
46534;BME280;32260;52.008;4.752;2023-01-25T07:24:18;103712.41;;;2.53;65.50
46534;BME280;32260;52.008;4.752;2023-01-25T07:26:45;103706.16;;;2.51;65.15
46534;BME280;32260;52.008;4.752;2023-01-25T07:29:13;103708.13;;;2.55;65.36
46534;BME280;32260;52.008;4.752;2023-01-25T07:31:40;103704.91;;;2.59;65.30
46534;BME280;32260;52.008;4.752;2023-01-25T07:34:09;103693.00;;;2.65;65.55
46534;BME280;32260;52.008;4.752;2023-01-25T07:36:37;103693.78;;;2.64;65.20
46534;BME280;32260;52.008;4.752;2023-01-25T07:39:03;103689.56;;;2.66;64.94
46534;BME280;32260;52.008;4.752;2023-01-25T07:41:30;103680.91;;;2.67;65.09
46534;BME280;32260;52.008;4.752;2023-01-25T07:43:57;103684.56;;;2.70;65.03
46534;BME280;32260;52.008;4.752;2023-01-25T07:46:23;103686.50;;;2.73;65.31
46534;BME280;32260;52.008;4.752;2023-01-25T07:48:51;103680.53;;;2.75;64.99
46534;BME280;32260;52.008;4.752;2023-01-25T07:51:19;103680.69;;;2.79;65.11
46534;BME280;32260;52.008;4.752;2023-01-25T07:53:53;103676.38;;;2.79;64.70
46534;BME280;32260;52.008;4.752;2023-01-25T07:56:21;103665.00;;;2.79;64.80
46534;BME280;32260;52.008;4.752;2023-01-25T07:58:48;103667.69;;;2.80;64.89
46534;BME280;32260;52.008;4.752;2023-01-25T08:01:17;103663.44;;;2.82;64.85
46534;BME280;32260;52.008;4.752;2023-01-25T08:03:44;103652.91;;;2.81;64.74
46534;BME280;32260;52.008;4.752;2023-01-25T08:06:11;103663.38;;;2.81;64.74
46534;BME280;32260;52.008;4.752;2023-01-25T08:08:44;103663.38;;;2.81;64.68
46534;BME280;32260;52.008;4.752;2023-01-25T08:11:14;103671.16;;;2.79;64.56
46534;BME280;32260;52.008;4.752;2023-01-25T08:13:41;103666.44;;;2.73;64.35
46534;BME280;32260;52.008;4.752;2023-01-25T08:16:13;103659.41;;;2.72;64.59
46534;BME280;32260;52.008;4.752;2023-01-25T08:18:39;103658.31;;;2.69;64.42
46534;BME280;32260;52.008;4.752;2023-01-25T08:21:05;103659.03;;;2.66;64.59
46534;BME280;32260;52.008;4.752;2023-01-25T08:23:32;103667.09;;;2.69;64.80
46534;BME280;32260;52.008;4.752;2023-01-25T08:26:03;103665.63;;;2.74;65.09
46534;BME280;32260;52.008;4.752;2023-01-25T08:28:29;103665.56;;;2.73;64.76
46534;BME280;32260;52.008;4.752;2023-01-25T08:31:04;103661.47;;;2.78;64.54
46534;BME280;32260;52.008;4.752;2023-01-25T08:33:30;103664.09;;;2.78;65.19
46534;BME280;32260;52.008;4.752;2023-01-25T08:35:57;103671.31;;;2.82;64.93
46534;BME280;32260;52.008;4.752;2023-01-25T08:38:23;103661.00;;;2.85;64.61
46534;BME280;32260;52.008;4.752;2023-01-25T08:40:49;103660.28;;;2.88;65.07
46534;BME280;32260;52.008;4.752;2023-01-25T08:43:15;103655.06;;;2.88;64.99
46534;BME280;32260;52.008;4.752;2023-01-25T08:45:41;103654.13;;;2.87;64.57
46534;BME280;32260;52.008;4.752;2023-01-25T08:48:08;103646.75;;;2.80;64.86
46534;BME280;32260;52.008;4.752;2023-01-25T08:50:34;103646.56;;;2.77;65.03
46534;BME280;32260;52.008;4.752;2023-01-25T08:53:00;103648.38;;;2.78;65.03
46534;BME280;32260;52.008;4.752;2023-01-25T08:55:26;103649.94;;;2.74;65.05
46534;BME280;32260;52.008;4.752;2023-01-25T08:57:52;103656.13;;;2.77;65.07
46534;BME280;32260;52.008;4.752;2023-01-25T09:00:18;103640.53;;;2.78;65.12
46534;BME280;32260;52.008;4.752;2023-01-25T09:02:44;103636.47;;;2.83;64.99
46534;BME280;32260;52.008;4.752;2023-01-25T09:05:11;103640.16;;;2.87;65.21
46534;BME280;32260;52.008;4.752;2023-01-25T09:07:37;103638.63;;;2.90;64.79
46534;BME280;32260;52.008;4.752;2023-01-25T09:10:05;103630.09;;;2.95;65.00
46534;BME280;32260;52.008;4.752;2023-01-25T09:12:34;103631.84;;;2.94;64.74
46534;BME280;32260;52.008;4.752;2023-01-25T09:15:01;103634.63;;;2.97;64.32
46534;BME280;32260;52.008;4.752;2023-01-25T09:17:27;103626.84;;;2.99;64.59
46534;BME280;32260;52.008;4.752;2023-01-25T09:19:53;103632.25;;;3.02;64.46
46534;BME280;32260;52.008;4.752;2023-01-25T09:22:19;103631.59;;;3.06;64.26
46534;BME280;32260;52.008;4.752;2023-01-25T09:24:45;103633.06;;;3.01;64.71
46534;BME280;32260;52.008;4.752;2023-01-25T09:27:12;103635.84;;;3.04;64.97
46534;BME280;32260;52.008;4.752;2023-01-25T09:29:38;103636.44;;;2.98;64.54
46534;BME280;32260;52.008;4.752;2023-01-25T09:32:04;103638.31;;;3.01;65.00
46534;BME280;32260;52.008;4.752;2023-01-25T09:34:30;103625.94;;;2.98;64.49
46534;BME280;32260;52.008;4.752;2023-01-25T09:36:56;103626.75;;;2.97;64.77
46534;BME280;32260;52.008;4.752;2023-01-25T09:39:22;103621.44;;;2.96;64.82
46534;BME280;32260;52.008;4.752;2023-01-25T09:44:58;103612.47;;;3.07;65.06
46534;BME280;32260;52.008;4.752;2023-01-25T09:50:33;103608.84;;;3.05;64.94
46534;BME280;32260;52.008;4.752;2023-01-25T09:53:42;103610.72;;;3.07;64.66
46534;BME280;32260;52.008;4.752;2023-01-25T09:56:08;103620.31;;;3.07;64.53
46534;BME280;32260;52.008;4.752;2023-01-25T09:58:39;103605.50;;;3.07;64.51
46534;BME280;32260;52.008;4.752;2023-01-25T10:01:22;103589.03;;;3.10;65.08
46534;BME280;32260;52.008;4.752;2023-01-25T10:03:56;103591.03;;;3.14;64.84
46534;BME280;32260;52.008;4.752;2023-01-25T10:06:37;103591.03;;;3.14;64.96
46534;BME280;32260;52.008;4.752;2023-01-25T10:09:19;103589.56;;;3.19;64.44
46534;BME280;32260;52.008;4.752;2023-01-25T10:11:48;103582.34;;;3.15;64.84
46534;BME280;32260;52.008;4.752;2023-01-25T10:14:17;103579.09;;;3.19;64.76
46534;BME280;32260;52.008;4.752;2023-01-25T10:16:54;103568.59;;;3.19;64.70
46534;BME280;32260;52.008;4.752;2023-01-25T10:19:48;103566.06;;;3.21;64.36
46534;BME280;32260;52.008;4.752;2023-01-25T10:22:22;103554.34;;;3.14;64.69
46534;BME280;32260;52.008;4.752;2023-01-25T10:25:58;103553.78;;;3.20;64.97
46534;BME280;32260;52.008;4.752;2023-01-25T10:27:58;103557.38;;;3.22;64.62
46534;BME280;32260;52.008;4.752;2023-01-25T10:30:29;103556.81;;;3.28;65.00
46534;BME280;32260;52.008;4.752;2023-01-25T10:32:59;103551.41;;;3.24;64.22
46534;BME280;32260;52.008;4.752;2023-01-25T10:35:30;103559.19;;;3.23;64.27
46534;BME280;32260;52.008;4.752;2023-01-25T10:38:06;103560.00;;;3.22;64.76
46534;BME280;32260;52.008;4.752;2023-01-25T10:40:42;103554.03;;;3.24;64.36
46534;BME280;32260;52.008;4.752;2023-01-25T10:43:17;103546.16;;;3.24;64.39
46534;BME280;32260;52.008;4.752;2023-01-25T10:45:44;103542.41;;;3.19;64.00
46534;BME280;32260;52.008;4.752;2023-01-25T10:48:17;103540.75;;;3.21;63.94
46534;BME280;32260;52.008;4.752;2023-01-25T10:50:46;103537.31;;;3.22;64.19
46534;BME280;32260;52.008;4.752;2023-01-25T10:53:34;103526.69;;;3.19;64.06
46534;BME280;32260;52.008;4.752;2023-01-25T10:59:06;103518.31;;;3.10;64.03
46534;BME280;32260;52.008;4.752;2023-01-25T11:01:34;103513.72;;;3.06;64.61
46534;BME280;32260;52.008;4.752;2023-01-25T11:04:02;103509.56;;;3.10;64.98
46534;BME280;32260;52.008;4.752;2023-01-25T11:06:34;103507.41;;;3.19;64.50
46534;BME280;32260;52.008;4.752;2023-01-25T11:12:39;103489.34;;;3.23;64.59
46534;BME280;32260;52.008;4.752;2023-01-25T11:15:23;103488.03;;;3.32;64.14
46534;BME280;32260;52.008;4.752;2023-01-25T11:18:04;103483.44;;;3.28;63.81
46534;BME280;32260;52.008;4.752;2023-01-25T11:20:31;103481.22;;;3.19;63.72
46534;BME280;32260;52.008;4.752;2023-01-25T11:23:00;103472.63;;;3.21;63.65
46534;BME280;32260;52.008;4.752;2023-01-25T11:25:29;103469.03;;;3.19;64.32
46534;BME280;32260;52.008;4.752;2023-01-25T11:28:16;103460.84;;;3.30;63.82
46534;BME280;32260;52.008;4.752;2023-01-25T11:30:43;103458.88;;;3.26;63.78
46534;BME280;32260;52.008;4.752;2023-01-25T11:33:12;103448.66;;;3.30;64.23
46534;BME280;32260;52.008;4.752;2023-01-25T11:36:05;103440.69;;;3.29;64.07
46534;BME280;32260;52.008;4.752;2023-01-25T11:38:30;103430.00;;;3.24;63.88
46534;BME280;32260;52.008;4.752;2023-01-25T11:41:22;103421.91;;;3.37;63.64
46534;BME280;32260;52.008;4.752;2023-01-25T11:43:53;103412.66;;;3.44;63.54
46534;BME280;32260;52.008;4.752;2023-01-25T11:50:33;103396.69;;;3.39;63.73
46534;BME280;32260;52.008;4.752;2023-01-25T11:53:32;103381.03;;;3.41;63.78
46534;BME280;32260;52.008;4.752;2023-01-25T11:55:24;103370.56;;;3.41;63.40
46534;BME280;32260;52.008;4.752;2023-01-25T12:00:47;103362.63;;;3.39;63.24
46534;BME280;32260;52.008;4.752;2023-01-25T12:03:46;103364.25;;;3.37;63.89
46534;BME280;32260;52.008;4.752;2023-01-25T12:06:24;103358.63;;;3.30;63.66
46534;BME280;32260;52.008;4.752;2023-01-25T12:11:59;103333.06;;;3.42;64.03
46534;BME280;32260;52.008;4.752;2023-01-25T12:18:26;103322.50;;;3.40;64.14
46534;BME280;32260;52.008;4.752;2023-01-25T12:23:21;103314.09;;;3.30;63.66
46534;BME280;32260;52.008;4.752;2023-01-25T12:28:40;103313.97;;;3.27;64.08
46534;BME280;32260;52.008;4.752;2023-01-25T12:34:01;103284.97;;;3.23;63.74
46534;BME280;32260;52.008;4.752;2023-01-25T12:36:32;103283.97;;;3.21;64.36
46534;BME280;32260;52.008;4.752;2023-01-25T12:39:04;103282.34;;;3.05;63.79
46534;BME280;32260;52.008;4.752;2023-01-25T12:41:40;103275.69;;;3.12;64.39
46534;BME280;32260;52.008;4.752;2023-01-25T12:47:02;103260.94;;;3.14;64.24
46534;BME280;32260;52.008;4.752;2023-01-25T12:50:34;103269.63;;;3.13;64.27
46534;BME280;32260;52.008;4.752;2023-01-25T12:52:38;103262.81;;;3.17;64.22
46534;BME280;32260;52.008;4.752;2023-01-25T12:55:15;103258.03;;;3.08;64.10
46534;BME280;32260;52.008;4.752;2023-01-25T12:58:05;103248.50;;;3.10;64.34
46534;BME280;32260;52.008;4.752;2023-01-25T13:00:47;103249.75;;;3.00;64.35
46534;BME280;32260;52.008;4.752;2023-01-25T13:06:38;103241.00;;;3.00;63.92
46534;BME280;32260;52.008;4.752;2023-01-25T13:11:52;103239.81;;;2.93;64.83
46534;BME280;32260;52.008;4.752;2023-01-25T13:14:26;103234.97;;;3.01;64.24
46534;BME280;32260;52.008;4.752;2023-01-25T13:17:10;103239.72;;;2.91;63.98
46534;BME280;32260;52.008;4.752;2023-01-25T13:25:29;103232.72;;;2.74;64.38
46534;BME280;32260;52.008;4.752;2023-01-25T13:31:01;103221.50;;;2.77;65.10
46534;BME280;32260;52.008;4.752;2023-01-25T13:33:32;103219.31;;;2.84;64.61
46534;BME280;32260;52.008;4.752;2023-01-25T13:36:51;103210.78;;;2.88;64.68
46534;BME280;32260;52.008;4.752;2023-01-25T13:44:43;103194.44;;;2.76;64.95
46534;BME280;32260;52.008;4.752;2023-01-25T13:47:12;103191.09;;;2.79;64.71
46534;BME280;32260;52.008;4.752;2023-01-25T13:49:43;103191.00;;;2.77;64.85
46534;BME280;32260;52.008;4.752;2023-01-25T13:52:18;103192.00;;;2.79;64.92
46534;BME280;32260;52.008;4.752;2023-01-25T13:54:46;103192.88;;;2.80;65.15
46534;BME280;32260;52.008;4.752;2023-01-25T13:57:18;103187.56;;;2.78;64.70
46534;BME280;32260;52.008;4.752;2023-01-25T13:59:46;103181.28;;;2.74;64.43
46534;BME280;32260;52.008;4.752;2023-01-25T14:04:52;103187.09;;;2.69;64.82
46534;BME280;32260;52.008;4.752;2023-01-25T14:07:34;103183.97;;;2.76;64.72
46534;BME280;32260;52.008;4.752;2023-01-25T14:10:05;103181.66;;;2.82;64.73
46534;BME280;32260;52.008;4.752;2023-01-25T14:12:38;103178.44;;;2.70;65.02
46534;BME280;32260;52.008;4.752;2023-01-25T14:15:17;103174.38;;;2.77;64.52
46534;BME280;32260;52.008;4.752;2023-01-25T14:17:44;103174.19;;;2.72;64.96
46534;BME280;32260;52.008;4.752;2023-01-25T14:20:25;103172.69;;;2.77;64.67
46534;BME280;32260;52.008;4.752;2023-01-25T14:22:51;103167.81;;;2.67;64.45
46534;BME280;32260;52.008;4.752;2023-01-25T14:25:20;103171.56;;;2.72;64.77